KBLU/BLU METAR and TAF weather

Enter ICAO airport designator
Station Type Date Time Source
KBLU METAR 2022/12/04 05:15 UTC NOAA

KBLU 040515Z AUTO 16012G25KT 3SM -RA BR OVC004 04/04 A2992 RMK AO2 PK WND 18026/0502 P0002 T00440044 $


Station Type Date Time Source
KBLU Decoded METAR 2022/12/04 05:15 UTC NOAA

BLUE CANYON AIRPORT, CA, United States (KBLU) 39-17N 120-42W 1609M
Dec 04, 2022 - 12:15 AM EST / 2022.12.04 0515 UTC
Wind: from the SSE (160 degrees) at 14 MPH (12 KT) gusting to 29 MPH (25 KT):0
Visibility: 3 mile(s):0
Sky conditions: overcast
Weather: light rain; mist
Precipitation last hour: 0.02 inches
Temperature: 39.9 F (4.4 C)
Dew Point: 39.9 F (4.4 C)
Relative Humidity: 100%
Pressure (altimeter): 29.92 in. Hg (1013 hPa)
ob: KBLU 040515Z AUTO 16012G25KT 3SM -RA BR OVC004 04/04 A2992 RMK AO2 PK WND 18026/0502 P0002 T00440044
cycle: 5

Station Type Date Time Source
KBLU TAF UTC NOAA

Error!

Example: see airport list